KBLF/BLF METAR and TAF weather

Enter ICAO airport designator
Station Type Date Time Source
KBLF METAR 2020/02/26 08:52 UTC NOAA

KBLF 260852Z AUTO 25003KT 10SM SCT018 OVC032 06/04 A2986 RMK AO2 SLP103 T00610039 58004 TSNO


Station Type Date Time Source
KBLF Decoded METAR 2020/02/26 08:52 UTC NOAA

BLUEFIELD MERCER COUNTY AIRPORT , WV, United States (KBLF) 37-18N 081-12W 873M
Feb 26, 2020 - 03:52 AM EST / 2020.02.26 0852 UTC
Wind: from the WSW (250 degrees) at 3 MPH (3 KT):0
Visibility: 10 mile(s):0
Sky conditions: overcast
Temperature: 43.0 F (6.1 C)
Dew Point: 39.0 F (3.9 C)
Relative Humidity: 85%
Pressure (altimeter): 29.86 in. Hg (1011 hPa)
Pressure tendency: 0.01 inches (0.4 hPa) lower than three hours ago
ob: KBLF 260852Z AUTO 25003KT 10SM SCT018 OVC032 06/04 A2986 RMK AO2 SLP103 T00610039 58004 TSNO
cycle: 9

Station Type Date Time Source
KBLF TAF 2020/02/26 06:22 UTC NOAA

TAF KBLF 260520Z 2606/2706 00000KT P6SM OVC020
FM261700 21006KT P6SM VCSH OVC020
FM262000 28013G23KT 4SM SHRA BR OVC015
FM270100 28012G26KT 6SM -SHSN OVC012
FM270300 28013G30KT 3SM -SHSN BR OVC007

Example: see airport list